sensor_id;sensor_type;location;lat;lon;timestamp;P1;durP1;ratioP1;P2;durP2;ratioP2
1589;SDS011;788;48.720;9.158;2022-09-03T05:14:44;2.83;;;2.73;;
1589;SDS011;788;48.720;9.158;2022-09-03T05:17:10;4.27;;;3.87;;
1589;SDS011;788;48.720;9.158;2022-09-03T05:19:37;3.50;;;3.20;;
1589;SDS011;788;48.720;9.158;2022-09-03T05:22:04;3.27;;;2.97;;
1589;SDS011;788;48.720;9.158;2022-09-03T05:24:32;3.60;;;3.37;;
1589;SDS011;788;48.720;9.158;2022-09-03T05:26:58;3.00;;;2.80;;
1589;SDS011;788;48.720;9.158;2022-09-03T05:29:26;3.03;;;2.83;;
1589;SDS011;788;48.720;9.158;2022-09-03T05:31:54;3.07;;;2.87;;
1589;SDS011;788;48.720;9.158;2022-09-03T05:34:21;3.83;;;3.60;;
1589;SDS011;788;48.720;9.158;2022-09-03T05:36:47;4.50;;;4.07;;
1589;SDS011;788;48.720;9.158;2022-09-03T05:39:14;3.63;;;3.33;;
1589;SDS011;788;48.720;9.158;2022-09-03T05:41:41;4.20;;;3.90;;
1589;SDS011;788;48.720;9.158;2022-09-03T05:44:07;4.00;;;3.70;;
1589;SDS011;788;48.720;9.158;2022-09-03T05:46:34;3.67;;;3.43;;
1589;SDS011;788;48.720;9.158;2022-09-03T05:49:04;6.93;;;4.60;;
1589;SDS011;788;48.720;9.158;2022-09-03T05:51:45;4.63;;;4.20;;
1589;SDS011;788;48.720;9.158;2022-09-03T05:54:48;4.43;;;3.47;;
1589;SDS011;788;48.720;9.158;2022-09-03T05:57:45;5.33;;;3.70;;
1589;SDS011;788;48.720;9.158;2022-09-03T06:21:44;3.77;;;3.47;;
1589;SDS011;788;48.720;9.158;2022-09-03T06:24:13;3.97;;;3.67;;
1589;SDS011;788;48.720;9.158;2022-09-03T06:26:43;3.93;;;3.63;;
1589;SDS011;788;48.720;9.158;2022-09-03T06:29:10;4.60;;;4.10;;
1589;SDS011;788;48.720;9.158;2022-09-03T06:31:38;3.63;;;3.43;;
1589;SDS011;788;48.720;9.158;2022-09-03T06:34:05;5.03;;;4.53;;
1589;SDS011;788;48.720;9.158;2022-09-03T06:36:32;4.70;;;4.30;;
1589;SDS011;788;48.720;9.158;2022-09-03T06:39:00;4.27;;;3.87;;
1589;SDS011;788;48.720;9.158;2022-09-03T06:41:27;7.60;;;3.97;;
1589;SDS011;788;48.720;9.158;2022-09-03T06:43:57;4.20;;;3.50;;
1589;SDS011;788;48.720;9.158;2022-09-03T06:46:26;6.83;;;4.07;;
1589;SDS011;788;48.720;9.158;2022-09-03T06:48:53;4.00;;;3.80;;
1589;SDS011;788;48.720;9.158;2022-09-03T06:51:20;4.40;;;4.00;;
1589;SDS011;788;48.720;9.158;2022-09-03T06:53:48;4.70;;;4.40;;
1589;SDS011;788;48.720;9.158;2022-09-03T06:56:18;4.93;;;4.60;;
1589;SDS011;788;48.720;9.158;2022-09-03T06:58:51;5.20;;;4.70;;
1589;SDS011;788;48.720;9.158;2022-09-03T07:01:20;3.93;;;3.73;;
1589;SDS011;788;48.720;9.158;2022-09-03T07:03:51;4.27;;;3.97;;
1589;SDS011;788;48.720;9.158;2022-09-03T07:06:21;4.20;;;3.93;;
1589;SDS011;788;48.720;9.158;2022-09-03T07:08:48;3.40;;;3.20;;
1589;SDS011;788;48.720;9.158;2022-09-03T07:11:16;4.90;;;4.37;;
1589;SDS011;788;48.720;9.158;2022-09-03T07:13:47;5.40;;;4.40;;
1589;SDS011;788;48.720;9.158;2022-09-03T07:16:16;4.73;;;4.30;;
1589;SDS011;788;48.720;9.158;2022-09-03T07:18:43;5.43;;;4.30;;
1589;SDS011;788;48.720;9.158;2022-09-03T07:21:11;6.63;;;3.67;;
1589;SDS011;788;48.720;9.158;2022-09-03T07:23:40;3.93;;;3.70;;
1589;SDS011;788;48.720;9.158;2022-09-03T07:26:07;3.30;;;3.10;;
1589;SDS011;788;48.720;9.158;2022-09-03T07:28:38;4.87;;;4.47;;
1589;SDS011;788;48.720;9.158;2022-09-03T07:31:07;4.13;;;3.83;;
1589;SDS011;788;48.720;9.158;2022-09-03T07:33:35;4.27;;;3.87;;
1589;SDS011;788;48.720;9.158;2022-09-03T07:36:03;4.00;;;3.50;;
1589;SDS011;788;48.720;9.158;2022-09-03T07:38:31;4.67;;;4.37;;
1589;SDS011;788;48.720;9.158;2022-09-03T07:40:58;3.93;;;3.73;;
1589;SDS011;788;48.720;9.158;2022-09-03T07:43:26;4.87;;;4.47;;
1589;SDS011;788;48.720;9.158;2022-09-03T07:45:55;6.63;;;4.80;;
1589;SDS011;788;48.720;9.158;2022-09-03T07:48:22;3.97;;;3.57;;
1589;SDS011;788;48.720;9.158;2022-09-03T07:50:48;4.43;;;3.90;;
1589;SDS011;788;48.720;9.158;2022-09-03T07:53:15;4.93;;;4.53;;
1589;SDS011;788;48.720;9.158;2022-09-03T07:55:44;3.77;;;3.47;;
1589;SDS011;788;48.720;9.158;2022-09-03T07:58:12;4.60;;;4.30;;
1589;SDS011;788;48.720;9.158;2022-09-03T08:00:39;4.30;;;4.00;;
1589;SDS011;788;48.720;9.158;2022-09-03T08:03:07;4.33;;;4.00;;
1589;SDS011;788;48.720;9.158;2022-09-03T08:05:35;4.17;;;3.87;;
1589;SDS011;788;48.720;9.158;2022-09-03T08:08:02;4.83;;;4.47;;
1589;SDS011;788;48.720;9.158;2022-09-03T08:10:29;4.30;;;4.00;;
1589;SDS011;788;48.720;9.158;2022-09-03T08:12:56;4.47;;;4.17;;
1589;SDS011;788;48.720;9.158;2022-09-03T08:15:23;4.63;;;3.80;;
1589;SDS011;788;48.720;9.158;2022-09-03T08:17:50;5.13;;;4.73;;
1589;SDS011;788;48.720;9.158;2022-09-03T08:20:19;5.10;;;4.70;;
1589;SDS011;788;48.720;9.158;2022-09-03T08:22:46;7.20;;;4.90;;
1589;SDS011;788;48.720;9.158;2022-09-03T08:25:13;4.77;;;4.37;;
1589;SDS011;788;48.720;9.158;2022-09-03T08:27:40;4.60;;;4.23;;
1589;SDS011;788;48.720;9.158;2022-09-03T08:30:07;4.63;;;4.33;;
1589;SDS011;788;48.720;9.158;2022-09-03T08:32:36;6.57;;;4.70;;
1589;SDS011;788;48.720;9.158;2022-09-03T08:35:03;4.63;;;4.23;;
1589;SDS011;788;48.720;9.158;2022-09-03T08:37:32;4.30;;;4.00;;
1589;SDS011;788;48.720;9.158;2022-09-03T08:39:59;4.80;;;3.80;;
1589;SDS011;788;48.720;9.158;2022-09-03T08:42:29;4.87;;;4.53;;
1589;SDS011;788;48.720;9.158;2022-09-03T08:45:05;4.23;;;3.93;;
1589;SDS011;788;48.720;9.158;2022-09-03T08:47:36;4.97;;;4.57;;
1589;SDS011;788;48.720;9.158;2022-09-03T08:50:07;5.00;;;4.60;;
1589;SDS011;788;48.720;9.158;2022-09-03T08:52:41;4.57;;;4.27;;
1589;SDS011;788;48.720;9.158;2022-09-03T08:55:15;3.40;;;3.20;;
1589;SDS011;788;48.720;9.158;2022-09-03T08:57:47;4.37;;;4.07;;
1589;SDS011;788;48.720;9.158;2022-09-03T09:00:16;7.30;;;4.53;;
1589;SDS011;788;48.720;9.158;2022-09-03T09:02:49;4.50;;;4.20;;
1589;SDS011;788;48.720;9.158;2022-09-03T09:05:28;3.97;;;3.77;;
1589;SDS011;788;48.720;9.158;2022-09-03T09:08:07;3.70;;;3.50;;
1589;SDS011;788;48.720;9.158;2022-09-03T09:10:44;3.60;;;3.40;;
1589;SDS011;788;48.720;9.158;2022-09-03T09:13:15;3.90;;;3.70;;
1589;SDS011;788;48.720;9.158;2022-09-03T09:15:51;4.40;;;4.00;;
1589;SDS011;788;48.720;9.158;2022-09-03T09:18:26;4.03;;;3.83;;
1589;SDS011;788;48.720;9.158;2022-09-03T09:21:02;4.73;;;4.43;;
1589;SDS011;788;48.720;9.158;2022-09-03T09:23:39;4.90;;;4.17;;
1589;SDS011;788;48.720;9.158;2022-09-03T09:26:09;5.93;;;4.23;;
1589;SDS011;788;48.720;9.158;2022-09-03T09:28:38;4.90;;;4.50;;
1589;SDS011;788;48.720;9.158;2022-09-03T09:31:07;4.60;;;4.20;;
1589;SDS011;788;48.720;9.158;2022-09-03T09:33:39;3.90;;;3.67;;
1589;SDS011;788;48.720;9.158;2022-09-03T09:36:07;4.37;;;4.07;;
1589;SDS011;788;48.720;9.158;2022-09-03T09:38:38;4.73;;;4.43;;
1589;SDS011;788;48.720;9.158;2022-09-03T09:41:09;5.17;;;4.77;;
1589;SDS011;788;48.720;9.158;2022-09-03T09:43:37;4.63;;;4.30;;
1589;SDS011;788;48.720;9.158;2022-09-03T09:46:08;4.40;;;4.20;;
1589;SDS011;788;48.720;9.158;2022-09-03T09:48:38;4.70;;;4.40;;
1589;SDS011;788;48.720;9.158;2022-09-03T09:51:17;4.20;;;3.90;;
1589;SDS011;788;48.720;9.158;2022-09-03T09:53:46;4.50;;;4.20;;
1589;SDS011;788;48.720;9.158;2022-09-03T09:56:25;4.30;;;4.03;;
1589;SDS011;788;48.720;9.158;2022-09-03T09:59:00;4.60;;;3.97;;
1589;SDS011;788;48.720;9.158;2022-09-03T10:01:28;4.30;;;4.10;;
1589;SDS011;788;48.720;9.158;2022-09-03T10:03:56;4.50;;;4.20;;
1589;SDS011;788;48.720;9.158;2022-09-03T10:06:25;4.67;;;4.37;;
1589;SDS011;788;48.720;9.158;2022-09-03T10:09:18;4.87;;;4.57;;
1589;SDS011;788;48.720;9.158;2022-09-03T10:11:49;5.40;;;5.00;;
1589;SDS011;788;48.720;9.158;2022-09-03T10:14:23;4.60;;;4.30;;
1589;SDS011;788;48.720;9.158;2022-09-03T10:17:00;5.00;;;4.60;;
1589;SDS011;788;48.720;9.158;2022-09-03T10:19:35;5.50;;;5.10;;
1589;SDS011;788;48.720;9.158;2022-09-03T10:22:38;5.27;;;4.87;;
1589;SDS011;788;48.720;9.158;2022-09-03T10:25:12;5.70;;;5.40;;
1589;SDS011;788;48.720;9.158;2022-09-03T10:27:40;4.87;;;4.57;;
1589;SDS011;788;48.720;9.158;2022-09-03T10:30:09;4.70;;;4.30;;
1589;SDS011;788;48.720;9.158;2022-09-03T10:32:38;5.30;;;4.90;;
1589;SDS011;788;48.720;9.158;2022-09-03T10:35:12;5.40;;;5.00;;
1589;SDS011;788;48.720;9.158;2022-09-03T10:37:48;4.40;;;4.10;;
1589;SDS011;788;48.720;9.158;2022-09-03T10:40:23;4.43;;;4.03;;
1589;SDS011;788;48.720;9.158;2022-09-03T10:45:55;4.53;;;4.33;;
1589;SDS011;788;48.720;9.158;2022-09-03T10:51:23;5.53;;;5.03;;
1589;SDS011;788;48.720;9.158;2022-09-03T10:54:07;4.90;;;4.50;;
1589;SDS011;788;48.720;9.158;2022-09-03T10:56:52;4.83;;;4.53;;
1589;SDS011;788;48.720;9.158;2022-09-03T10:59:29;5.17;;;4.77;;
1589;SDS011;788;48.720;9.158;2022-09-03T11:02:06;5.87;;;5.37;;
1589;SDS011;788;48.720;9.158;2022-09-03T11:04:45;5.60;;;5.30;;
1589;SDS011;788;48.720;9.158;2022-09-03T11:07:19;6.17;;;5.77;;
1589;SDS011;788;48.720;9.158;2022-09-03T11:09:49;5.37;;;5.00;;
1589;SDS011;788;48.720;9.158;2022-09-03T11:12:21;5.23;;;4.83;;
1589;SDS011;788;48.720;9.158;2022-09-03T11:14:55;5.97;;;5.47;;
1589;SDS011;788;48.720;9.158;2022-09-03T11:17:28;5.63;;;5.23;;
1589;SDS011;788;48.720;9.158;2022-09-03T11:20:02;8.83;;;5.10;;
1589;SDS011;788;48.720;9.158;2022-09-03T11:22:37;5.43;;;5.10;;
1589;SDS011;788;48.720;9.158;2022-09-03T11:25:07;4.87;;;4.57;;
1589;SDS011;788;48.720;9.158;2022-09-03T11:27:44;4.83;;;4.53;;
1589;SDS011;788;48.720;9.158;2022-09-03T11:30:22;5.53;;;5.13;;
1589;SDS011;788;48.720;9.158;2022-09-03T11:32:52;5.13;;;4.77;;
1589;SDS011;788;48.720;9.158;2022-09-03T11:35:25;5.60;;;5.20;;
1589;SDS011;788;48.720;9.158;2022-09-03T11:37:54;6.70;;;6.07;;
1589;SDS011;788;48.720;9.158;2022-09-03T11:40:28;5.23;;;4.93;;
1589;SDS011;788;48.720;9.158;2022-09-03T11:43:06;5.70;;;5.30;;
1589;SDS011;788;48.720;9.158;2022-09-03T11:45:37;5.20;;;4.80;;
1589;SDS011;788;48.720;9.158;2022-09-03T11:48:17;5.47;;;4.97;;
1589;SDS011;788;48.720;9.158;2022-09-03T11:50:55;5.87;;;4.37;;
1589;SDS011;788;48.720;9.158;2022-09-03T11:53:23;5.90;;;5.07;;
1589;SDS011;788;48.720;9.158;2022-09-03T11:55:54;5.90;;;5.40;;
1589;SDS011;788;48.720;9.158;2022-09-03T11:58:27;5.50;;;5.20;;
1589;SDS011;788;48.720;9.158;2022-09-03T12:00:56;6.73;;;6.23;;
1589;SDS011;788;48.720;9.158;2022-09-03T12:03:26;6.27;;;5.67;;
1589;SDS011;788;48.720;9.158;2022-09-03T12:06:09;6.50;;;5.97;;
1589;SDS011;788;48.720;9.158;2022-09-03T12:09:15;7.20;;;6.60;;
1589;SDS011;788;48.720;9.158;2022-09-03T12:12:00;6.77;;;6.17;;
1589;SDS011;788;48.720;9.158;2022-09-03T12:14:39;6.97;;;6.40;;
1589;SDS011;788;48.720;9.158;2022-09-03T12:17:21;9.43;;;7.20;;
1589;SDS011;788;48.720;9.158;2022-09-03T12:19:56;4.40;;;4.17;;
1589;SDS011;788;48.720;9.158;2022-09-03T12:22:24;3.73;;;3.20;;
1589;SDS011;788;48.720;9.158;2022-09-03T12:24:53;3.17;;;2.87;;
1589;SDS011;788;48.720;9.158;2022-09-03T12:27:21;3.30;;;3.00;;
1589;SDS011;788;48.720;9.158;2022-09-03T12:29:55;2.00;;;1.67;;
1589;SDS011;788;48.720;9.158;2022-09-03T12:32:25;2.63;;;2.43;;
1589;SDS011;788;48.720;9.158;2022-09-03T12:34:56;4.43;;;3.00;;
1589;SDS011;788;48.720;9.158;2022-09-03T12:37:23;2.90;;;2.70;;
1589;SDS011;788;48.720;9.158;2022-09-03T12:39:52;2.77;;;2.57;;
1589;SDS011;788;48.720;9.158;2022-09-03T12:42:24;2.57;;;2.37;;
1589;SDS011;788;48.720;9.158;2022-09-03T12:44:52;3.43;;;3.07;;
1589;SDS011;788;48.720;9.158;2022-09-03T12:47:22;4.20;;;3.50;;
1589;SDS011;788;48.720;9.158;2022-09-03T12:49:50;3.70;;;3.23;;
1589;SDS011;788;48.720;9.158;2022-09-03T13:19:23;4.80;;;2.87;;
1589;SDS011;788;48.720;9.158;2022-09-03T13:22:52;4.40;;;2.40;;
1589;SDS011;788;48.720;9.158;2022-09-03T13:26:02;2.13;;;1.70;;
1589;SDS011;788;48.720;9.158;2022-09-03T13:29:02;2.67;;;2.40;;
1589;SDS011;788;48.720;9.158;2022-09-03T13:32:06;3.00;;;2.73;;
1589;SDS011;788;48.720;9.158;2022-09-03T14:14:30;1.60;;;1.50;;
1589;SDS011;788;48.720;9.158;2022-09-03T14:17:09;2.67;;;2.10;;
1589;SDS011;788;48.720;9.158;2022-09-03T14:19:40;2.10;;;1.60;;
1589;SDS011;788;48.720;9.158;2022-09-03T14:22:12;1.73;;;1.63;;
1589;SDS011;788;48.720;9.158;2022-09-03T14:24:43;1.20;;;1.10;;
1589;SDS011;788;48.720;9.158;2022-09-03T14:27:21;1.50;;;1.40;;
1589;SDS011;788;48.720;9.158;2022-09-03T14:29:52;2.40;;;1.37;;
1589;SDS011;788;48.720;9.158;2022-09-03T14:32:25;1.53;;;1.43;;
1589;SDS011;788;48.720;9.158;2022-09-03T14:35:02;1.57;;;1.47;;
1589;SDS011;788;48.720;9.158;2022-09-03T14:37:46;1.30;;;1.20;;
1589;SDS011;788;48.720;9.158;2022-09-03T14:40:29;1.40;;;1.13;;
1589;SDS011;788;48.720;9.158;2022-09-03T14:43:15;1.93;;;1.83;;
1589;SDS011;788;48.720;9.158;2022-09-03T14:46:08;2.80;;;2.60;;
1589;SDS011;788;48.720;9.158;2022-09-03T14:48:56;1.50;;;1.40;;
1589;SDS011;788;48.720;9.158;2022-09-03T14:51:37;1.97;;;1.60;;
1589;SDS011;788;48.720;9.158;2022-09-03T14:54:26;4.00;;;1.40;;
1589;SDS011;788;48.720;9.158;2022-09-03T14:57:06;1.30;;;1.20;;
1589;SDS011;788;48.720;9.158;2022-09-03T14:59:50;1.37;;;1.20;;
1589;SDS011;788;48.720;9.158;2022-09-03T15:02:44;1.23;;;1.20;;
1589;SDS011;788;48.720;9.158;2022-09-03T15:05:33;1.70;;;1.20;;
1589;SDS011;788;48.720;9.158;2022-09-03T15:08:08;1.07;;;1.07;;
1589;SDS011;788;48.720;9.158;2022-09-03T15:10:41;1.47;;;1.30;;
1589;SDS011;788;48.720;9.158;2022-09-03T15:13:14;2.13;;;1.20;;
1589;SDS011;788;48.720;9.158;2022-09-03T15:15:47;1.50;;;1.40;;
1589;SDS011;788;48.720;9.158;2022-09-03T15:18:36;1.30;;;1.03;;
1589;SDS011;788;48.720;9.158;2022-09-03T15:21:15;1.50;;;1.40;;
1589;SDS011;788;48.720;9.158;2022-09-03T15:23:51;1.57;;;1.47;;
1589;SDS011;788;48.720;9.158;2022-09-03T15:26:31;1.73;;;1.63;;
1589;SDS011;788;48.720;9.158;2022-09-03T15:29:15;1.87;;;1.67;;
1589;SDS011;788;48.720;9.158;2022-09-03T15:32:00;1.93;;;1.83;;
1589;SDS011;788;48.720;9.158;2022-09-03T15:34:40;2.40;;;2.30;;
1589;SDS011;788;48.720;9.158;2022-09-03T15:37:18;2.30;;;2.10;;
1589;SDS011;788;48.720;9.158;2022-09-03T15:39:56;1.83;;;1.73;;
1589;SDS011;788;48.720;9.158;2022-09-03T15:42:27;2.33;;;2.13;;
1589;SDS011;788;48.720;9.158;2022-09-03T15:44:59;1.57;;;1.47;;
1589;SDS011;788;48.720;9.158;2022-09-03T15:47:31;1.40;;;1.30;;
1589;SDS011;788;48.720;9.158;2022-09-03T15:50:13;1.97;;;1.70;;
1589;SDS011;788;48.720;9.158;2022-09-03T15:52:52;1.40;;;1.40;;
1589;SDS011;788;48.720;9.158;2022-09-03T15:55:25;2.47;;;2.27;;
1589;SDS011;788;48.720;9.158;2022-09-03T15:57:59;2.30;;;2.17;;
1589;SDS011;788;48.720;9.158;2022-09-03T16:00:38;2.00;;;1.90;;
1589;SDS011;788;48.720;9.158;2022-09-03T16:03:18;2.17;;;1.80;;
1589;SDS011;788;48.720;9.158;2022-09-03T16:05:59;1.87;;;1.77;;
1589;SDS011;788;48.720;9.158;2022-09-03T16:08:31;2.40;;;2.20;;
1589;SDS011;788;48.720;9.158;2022-09-03T16:11:07;3.10;;;2.77;;
1589;SDS011;788;48.720;9.158;2022-09-03T16:13:49;1.77;;;1.67;;
1589;SDS011;788;48.720;9.158;2022-09-03T16:16:25;2.67;;;2.47;;
1589;SDS011;788;48.720;9.158;2022-09-03T16:18:58;3.47;;;3.10;;
1589;SDS011;788;48.720;9.158;2022-09-03T16:21:34;3.00;;;2.80;;
1589;SDS011;788;48.720;9.158;2022-09-03T16:24:04;2.37;;;2.27;;
1589;SDS011;788;48.720;9.158;2022-09-03T16:26:42;1.80;;;1.70;;
1589;SDS011;788;48.720;9.158;2022-09-03T16:29:17;2.70;;;1.97;;
1589;SDS011;788;48.720;9.158;2022-09-03T16:31:57;1.73;;;1.63;;
1589;SDS011;788;48.720;9.158;2022-09-03T16:34:34;2.13;;;1.90;;
1589;SDS011;788;48.720;9.158;2022-09-03T16:37:14;3.67;;;2.10;;
1589;SDS011;788;48.720;9.158;2022-09-03T16:39:51;1.57;;;1.47;;
1589;SDS011;788;48.720;9.158;2022-09-03T16:42:24;2.00;;;1.80;;
1589;SDS011;788;48.720;9.158;2022-09-03T16:44:58;3.17;;;1.97;;
1589;SDS011;788;48.720;9.158;2022-09-03T16:47:39;2.00;;;1.90;;
1589;SDS011;788;48.720;9.158;2022-09-03T16:50:18;2.30;;;1.80;;
1589;SDS011;788;48.720;9.158;2022-09-03T16:52:58;3.40;;;1.83;;
1589;SDS011;788;48.720;9.158;2022-09-03T16:55:47;1.63;;;1.53;;
1589;SDS011;788;48.720;9.158;2022-09-03T16:58:24;1.50;;;1.40;;
1589;SDS011;788;48.720;9.158;2022-09-03T17:01:02;2.70;;;2.50;;
1589;SDS011;788;48.720;9.158;2022-09-03T17:03:42;2.30;;;2.17;;
1589;SDS011;788;48.720;9.158;2022-09-03T17:06:30;2.60;;;2.10;;
1589;SDS011;788;48.720;9.158;2022-09-03T17:09:14;2.30;;;1.87;;
1589;SDS011;788;48.720;9.158;2022-09-03T17:11:54;2.30;;;2.10;;
1589;SDS011;788;48.720;9.158;2022-09-03T17:14:44;2.13;;;2.03;;
1589;SDS011;788;48.720;9.158;2022-09-03T17:17:33;2.07;;;1.97;;
1589;SDS011;788;48.720;9.158;2022-09-03T17:20:17;1.90;;;1.80;;
1589;SDS011;788;48.720;9.158;2022-09-03T17:23:06;1.47;;;1.37;;
1589;SDS011;788;48.720;9.158;2022-09-03T17:25:56;2.17;;;2.07;;
1589;SDS011;788;48.720;9.158;2022-09-03T17:28:38;1.90;;;1.80;;
1589;SDS011;788;48.720;9.158;2022-09-03T17:31:16;1.53;;;1.43;;
1589;SDS011;788;48.720;9.158;2022-09-03T17:33:53;4.47;;;1.93;;
1589;SDS011;788;48.720;9.158;2022-09-03T17:36:28;1.73;;;1.63;;
1589;SDS011;788;48.720;9.158;2022-09-03T17:42:04;2.63;;;2.13;;
1589;SDS011;788;48.720;9.158;2022-09-03T17:44:44;2.67;;;2.47;;
1589;SDS011;788;48.720;9.158;2022-09-03T17:47:26;2.30;;;2.10;;
1589;SDS011;788;48.720;9.158;2022-09-03T17:50:22;3.37;;;2.30;;
1589;SDS011;788;48.720;9.158;2022-09-03T17:52:51;3.40;;;1.90;;
1589;SDS011;788;48.720;9.158;2022-09-03T17:55:23;2.63;;;2.43;;
1589;SDS011;788;48.720;9.158;2022-09-03T17:58:02;3.00;;;2.80;;
1589;SDS011;788;48.720;9.158;2022-09-03T18:00:37;3.50;;;3.20;;
1589;SDS011;788;48.720;9.158;2022-09-03T18:03:11;2.63;;;2.43;;
1589;SDS011;788;48.720;9.158;2022-09-03T18:05:44;2.63;;;2.43;;
1589;SDS011;788;48.720;9.158;2022-09-03T18:08:15;3.40;;;3.10;;
1589;SDS011;788;48.720;9.158;2022-09-03T18:10:48;3.00;;;2.80;;
1589;SDS011;788;48.720;9.158;2022-09-03T18:13:30;3.50;;;2.97;;
1589;SDS011;788;48.720;9.158;2022-09-03T18:16:09;4.10;;;3.17;;
1589;SDS011;788;48.720;9.158;2022-09-03T18:18:41;3.63;;;3.43;;
1589;SDS011;788;48.720;9.158;2022-09-03T18:21:13;4.50;;;3.30;;
1589;SDS011;788;48.720;9.158;2022-09-03T18:24:05;3.53;;;3.23;;
1589;SDS011;788;48.720;9.158;2022-09-03T18:27:00;3.37;;;3.07;;
1589;SDS011;788;48.720;9.158;2022-09-03T18:29:54;7.30;;;4.33;;
1589;SDS011;788;48.720;9.158;2022-09-03T18:32:44;3.80;;;3.50;;
1589;SDS011;788;48.720;9.158;2022-09-03T18:35:28;3.50;;;2.77;;
1589;SDS011;788;48.720;9.158;2022-09-03T18:38:14;4.10;;;3.70;;
1589;SDS011;788;48.720;9.158;2022-09-03T18:41:05;3.17;;;2.87;;
1589;SDS011;788;48.720;9.158;2022-09-03T18:44:00;5.67;;;5.17;;
1589;SDS011;788;48.720;9.158;2022-09-03T18:46:57;4.80;;;4.40;;
1589;SDS011;788;48.720;9.158;2022-09-03T18:49:50;4.90;;;4.60;;
1589;SDS011;788;48.720;9.158;2022-09-03T18:52:43;4.40;;;4.00;;
1589;SDS011;788;48.720;9.158;2022-09-03T18:55:37;4.60;;;4.20;;
1589;SDS011;788;48.720;9.158;2022-09-03T18:58:31;5.63;;;4.20;;
1589;SDS011;788;48.720;9.158;2022-09-03T19:01:25;5.40;;;5.00;;
1589;SDS011;788;48.720;9.158;2022-09-03T19:04:18;4.00;;;3.70;;
1589;SDS011;788;48.720;9.158;2022-09-03T19:07:08;5.90;;;5.20;;
1589;SDS011;788;48.720;9.158;2022-09-03T19:09:56;5.20;;;4.80;;
1589;SDS011;788;48.720;9.158;2022-09-03T19:12:52;7.60;;;4.43;;
1589;SDS011;788;48.720;9.158;2022-09-03T19:15:49;4.67;;;4.27;;
1589;SDS011;788;48.720;9.158;2022-09-03T19:18:47;6.37;;;4.70;;
1589;SDS011;788;48.720;9.158;2022-09-03T19:22:01;5.37;;;4.90;;
1589;SDS011;788;48.720;9.158;2022-09-03T19:24:51;5.87;;;5.37;;
1589;SDS011;788;48.720;9.158;2022-09-03T19:27:40;6.20;;;5.80;;
1589;SDS011;788;48.720;9.158;2022-09-03T19:30:37;5.03;;;4.63;;
1589;SDS011;788;48.720;9.158;2022-09-03T19:33:32;5.37;;;4.97;;
1589;SDS011;788;48.720;9.158;2022-09-03T19:36:23;6.33;;;5.80;;
1589;SDS011;788;48.720;9.158;2022-09-03T19:39:24;6.07;;;5.60;;
1589;SDS011;788;48.720;9.158;2022-09-03T19:42:20;6.70;;;6.20;;
1589;SDS011;788;48.720;9.158;2022-09-03T19:45:14;6.00;;;5.50;;
1589;SDS011;788;48.720;9.158;2022-09-03T19:48:06;6.13;;;5.40;;
1589;SDS011;788;48.720;9.158;2022-09-03T19:50:58;6.10;;;5.60;;
1589;SDS011;788;48.720;9.158;2022-09-03T19:53:51;6.17;;;5.57;;
1589;SDS011;788;48.720;9.158;2022-09-03T19:56:38;5.53;;;5.00;;
1589;SDS011;788;48.720;9.158;2022-09-03T19:59:24;5.67;;;5.30;;
1589;SDS011;788;48.720;9.158;2022-09-03T20:02:16;5.93;;;5.43;;
1589;SDS011;788;48.720;9.158;2022-09-03T20:05:00;5.20;;;4.73;;
1589;SDS011;788;48.720;9.158;2022-09-03T20:07:49;5.73;;;5.37;;
1589;SDS011;788;48.720;9.158;2022-09-03T20:10:39;6.80;;;5.97;;
1589;SDS011;788;48.720;9.158;2022-09-03T20:13:10;7.30;;;6.70;;
1589;SDS011;788;48.720;9.158;2022-09-03T20:15:41;6.43;;;5.93;;
1589;SDS011;788;48.720;9.158;2022-09-03T20:18:16;6.67;;;6.17;;
1589;SDS011;788;48.720;9.158;2022-09-03T20:20:52;7.17;;;6.53;;
1589;SDS011;788;48.720;9.158;2022-09-03T20:23:29;6.30;;;5.80;;
1589;SDS011;788;48.720;9.158;2022-09-03T20:26:04;6.37;;;5.80;;
1589;SDS011;788;48.720;9.158;2022-09-03T20:31:36;5.27;;;4.87;;
1589;SDS011;788;48.720;9.158;2022-09-03T20:34:13;6.10;;;5.57;;
1589;SDS011;788;48.720;9.158;2022-09-03T20:36:52;6.37;;;4.93;;
1589;SDS011;788;48.720;9.158;2022-09-03T20:39:34;5.67;;;5.17;;
1589;SDS011;788;48.720;9.158;2022-09-03T20:42:13;6.20;;;5.70;;
1589;SDS011;788;48.720;9.158;2022-09-03T20:44:56;5.80;;;5.20;;
1589;SDS011;788;48.720;9.158;2022-09-03T20:47:36;5.87;;;5.30;;
1589;SDS011;788;48.720;9.158;2022-09-03T20:50:26;5.70;;;5.13;;
1589;SDS011;788;48.720;9.158;2022-09-03T20:53:18;5.40;;;4.90;;
1589;SDS011;788;48.720;9.158;2022-09-03T20:56:06;6.07;;;5.57;;
1589;SDS011;788;48.720;9.158;2022-09-03T20:58:37;9.63;;;6.43;;
1589;SDS011;788;48.720;9.158;2022-09-03T21:01:15;5.33;;;4.93;;
1589;SDS011;788;48.720;9.158;2022-09-03T21:03:49;7.20;;;6.20;;
1589;SDS011;788;48.720;9.158;2022-09-03T21:06:25;6.23;;;5.70;;
1589;SDS011;788;48.720;9.158;2022-09-03T21:09:12;4.93;;;4.47;;
1589;SDS011;788;48.720;9.158;2022-09-03T21:11:46;4.67;;;4.27;;
1589;SDS011;788;48.720;9.158;2022-09-03T21:14:21;5.63;;;4.37;;
1589;SDS011;788;48.720;9.158;2022-09-03T21:16:58;4.13;;;3.83;;
1589;SDS011;788;48.720;9.158;2022-09-03T21:19:39;5.90;;;5.40;;
1589;SDS011;788;48.720;9.158;2022-09-03T21:22:16;4.60;;;4.20;;
1589;SDS011;788;48.720;9.158;2022-09-03T21:24:53;5.27;;;4.77;;
1589;SDS011;788;48.720;9.158;2022-09-03T21:27:25;5.03;;;4.63;;
1589;SDS011;788;48.720;9.158;2022-09-03T21:29:58;5.40;;;4.90;;
1589;SDS011;788;48.720;9.158;2022-09-03T21:32:32;5.03;;;4.53;;
1589;SDS011;788;48.720;9.158;2022-09-03T21:35:05;5.10;;;4.70;;
1589;SDS011;788;48.720;9.158;2022-09-03T21:37:38;4.33;;;3.97;;
1589;SDS011;788;48.720;9.158;2022-09-03T21:40:12;6.30;;;5.70;;
1589;SDS011;788;48.720;9.158;2022-09-03T21:42:42;6.27;;;5.40;;
1589;SDS011;788;48.720;9.158;2022-09-03T21:45:13;6.07;;;5.57;;
1589;SDS011;788;48.720;9.158;2022-09-03T21:47:48;5.77;;;5.27;;
1589;SDS011;788;48.720;9.158;2022-09-03T21:50:23;7.37;;;4.67;;
1589;SDS011;788;48.720;9.158;2022-09-03T21:52:57;5.83;;;5.27;;
1589;SDS011;788;48.720;9.158;2022-09-03T21:58:08;14.10;;;8.07;;
1589;SDS011;788;48.720;9.158;2022-09-03T22:00:46;12.13;;;8.27;;
1589;SDS011;788;48.720;9.158;2022-09-03T22:03:16;12.37;;;7.20;;
1589;SDS011;788;48.720;9.158;2022-09-03T22:05:44;5.50;;;5.00;;
1589;SDS011;788;48.720;9.158;2022-09-03T22:08:19;6.20;;;5.37;;
1589;SDS011;788;48.720;9.158;2022-09-03T22:10:53;6.27;;;4.63;;
1589;SDS011;788;48.720;9.158;2022-09-03T22:13:28;6.20;;;5.30;;
1589;SDS011;788;48.720;9.158;2022-09-03T22:15:59;4.17;;;3.77;;
1589;SDS011;788;48.720;9.158;2022-09-03T22:18:31;5.20;;;4.70;;
1589;SDS011;788;48.720;9.158;2022-09-03T22:21:04;5.30;;;4.80;;
1589;SDS011;788;48.720;9.158;2022-09-03T22:23:39;5.30;;;4.43;;
1589;SDS011;788;48.720;9.158;2022-09-03T22:26:17;5.63;;;5.13;;
1589;SDS011;788;48.720;9.158;2022-09-03T22:28:52;6.93;;;5.70;;
1589;SDS011;788;48.720;9.158;2022-09-03T22:31:29;7.30;;;6.10;;
1589;SDS011;788;48.720;9.158;2022-09-03T22:34:13;8.47;;;6.30;;
1589;SDS011;788;48.720;9.158;2022-09-03T22:36:47;5.37;;;4.93;;
1589;SDS011;788;48.720;9.158;2022-09-03T22:39:18;6.83;;;6.10;;
1589;SDS011;788;48.720;9.158;2022-09-03T22:41:57;5.50;;;5.00;;
1589;SDS011;788;48.720;9.158;2022-09-03T22:44:36;7.93;;;5.70;;
1589;SDS011;788;48.720;9.158;2022-09-03T22:47:17;6.13;;;5.63;;
1589;SDS011;788;48.720;9.158;2022-09-03T22:49:58;6.00;;;5.33;;
1589;SDS011;788;48.720;9.158;2022-09-03T22:52:33;5.87;;;5.30;;
1589;SDS011;788;48.720;9.158;2022-09-03T22:55:08;6.47;;;5.77;;
1589;SDS011;788;48.720;9.158;2022-09-03T22:57:41;6.43;;;5.83;;
1589;SDS011;788;48.720;9.158;2022-09-03T23:00:14;8.03;;;7.13;;
1589;SDS011;788;48.720;9.158;2022-09-03T23:02:41;7.60;;;6.60;;
1589;SDS011;788;48.720;9.158;2022-09-03T23:05:21;7.20;;;6.50;;
1589;SDS011;788;48.720;9.158;2022-09-03T23:07:57;7.10;;;6.50;;
1589;SDS011;788;48.720;9.158;2022-09-03T23:10:31;7.80;;;7.20;;
1589;SDS011;788;48.720;9.158;2022-09-03T23:13:02;7.40;;;6.60;;
1589;SDS011;788;48.720;9.158;2022-09-03T23:15:32;8.23;;;7.20;;
1589;SDS011;788;48.720;9.158;2022-09-03T23:18:04;7.70;;;7.10;;
1589;SDS011;788;48.720;9.158;2022-09-03T23:20:37;6.80;;;6.10;;
1589;SDS011;788;48.720;9.158;2022-09-03T23:23:07;7.37;;;6.67;;
1589;SDS011;788;48.720;9.158;2022-09-03T23:25:42;7.10;;;6.40;;